Copemish, Michigan
Current Conditions -  °F | °C
As of 10:11 AM on Friday 31 Oct 2014 (Local Time) from KFKS Reporting Station
Light Rain Light Rain  
Wind Chill: 26°   Ceiling: 1700
Heat Index: 35°   Visibility: 5mi
Dew Point: 32°   Wind: 14mph
Humidity: 89%   Direction: 10°N
Pressure: 30.11"   Gusts: 30mph
Location:  44.48°N, 85.92°W
Report Text: KFKS 311411Z AUTO 01012G26KT 320V060 5SM -RA BKN017 OVC022 02/00 A3011 RMK AO2 T00160000
Loading
Personal Weather Stations






























Interactive Weather Map
Tropical Storm Tracking
New forecast layout! Learn more

10-Day Weather Forecast

Advertisements
Track Severe Weather on mobile